SIA35 KLAX-WSSS
Flight info
| Callsign | SIA35 |
|---|---|
| Flight time | N/A |
| Altitude | 34000 |
| Route | VTU8 RZS DCT TILLT DCT BRINY DCT AMAKR DCT LINUZ DCT 48N135W 51N140W/N0483F360 55N150W DCT CHUUK R341 HODDY/N0487F380 R341 NATES R220 NUZAN/N0490F390 R220 NUBDA/N0488F400 R220 IXE Y88 NAKTU Y12 AYANO Y128 LAXEL Y52 IGURU Q13 KABAM N892 MIGUG/K0906F400 N892 MONBO/K0895F430 N892 MELAS/N0482F430 DCT MABAL MABAL2B |
| Aircraft | A359/H-SDE2E3GHIJ3J4J5LM1ORWXY/LB1D1 |
Departure
| Time | 2026-04-21 17:20 |
|---|---|
| Airport | Los Angeles International Airport (KLAX) |
Arrival
| Time | N/A |
|---|---|
| Airport | Singapore Changi Airport (WSSS) |
| Time | Latitude | Longitude | Altitude | Speed | Heading |
|---|---|---|---|---|---|
| 2026-04-21 17:00 | 33.94178 | -118.41090 | 99 ft | 0 kts | 83° |
| 2026-04-21 17:01 | 33.94178 | -118.41091 | 99 ft | 0 kts | 83° |
| 2026-04-21 17:07 | 33.94178 | -118.41092 | 99 ft | 1 kts | 83° |
| 2026-04-21 17:07 | 33.94176 | -118.41112 | 99 ft | 3 kts | 83° |
| 2026-04-21 17:07 | 33.94173 | -118.41136 | 99 ft | 3 kts | 83° |
| 2026-04-21 17:07 | 33.94171 | -118.41160 | 99 ft | 3 kts | 83° |
| 2026-04-21 17:08 | 33.94168 | -118.41182 | 100 ft | 3 kts | 62° |
| 2026-04-21 17:08 | 33.94156 | -118.41198 | 99 ft | 3 kts | 18° |
| 2026-04-21 17:08 | 33.94139 | -118.41201 | 100 ft | 2 kts | 353° |
| 2026-04-21 17:08 | 33.94127 | -118.41199 | 98 ft | 3 kts | 353° |
| 2026-04-21 17:09 | 33.94104 | -118.41196 | 98 ft | 5 kts | 353° |
| 2026-04-21 17:10 | 33.94105 | -118.41196 | 98 ft | 0 kts | 353° |
| 2026-04-21 17:11 | 33.94198 | -118.41211 | 102 ft | 22 kts | 349° |
| 2026-04-21 17:12 | 33.94275 | -118.41306 | 101 ft | 13 kts | 316° |
| 2026-04-21 17:12 | 33.94327 | -118.41329 | 104 ft | 0 kts | 354° |
| 2026-04-21 17:12 | 33.94339 | -118.41330 | 100 ft | 7 kts | 354° |
| 2026-04-21 17:12 | 33.94340 | -118.41331 | 100 ft | 0 kts | 354° |
| 2026-04-21 17:13 | 33.94352 | -118.41332 | 101 ft | 10 kts | 353° |
| 2026-04-21 17:13 | 33.94374 | -118.41335 | 100 ft | 0 kts | 354° |
| 2026-04-21 17:13 | 33.94386 | -118.41338 | 100 ft | 8 kts | 350° |
| 2026-04-21 17:13 | 33.94451 | -118.41349 | 100 ft | 10 kts | 352° |
| 2026-04-21 17:14 | 33.94519 | -118.41361 | 100 ft | 10 kts | 352° |
| 2026-04-21 17:14 | 33.94610 | -118.41375 | 103 ft | 19 kts | 356° |
| 2026-04-21 17:14 | 33.94757 | -118.41383 | 103 ft | 15 kts | 16° |
| 2026-04-21 17:14 | 33.94794 | -118.41271 | 100 ft | 15 kts | 84° |
| 2026-04-21 17:15 | 33.94813 | -118.41098 | 103 ft | 33 kts | 81° |
| 2026-04-21 17:15 | 33.94836 | -118.40862 | 101 ft | 23 kts | 84° |
| 2026-04-21 17:15 | 33.94852 | -118.40706 | 100 ft | 17 kts | 82° |
| 2026-04-21 17:15 | 33.94868 | -118.40552 | 103 ft | 22 kts | 83° |
| 2026-04-21 17:16 | 33.94882 | -118.40409 | 101 ft | 10 kts | 83° |
| 2026-04-21 17:16 | 33.94892 | -118.40315 | 102 ft | 14 kts | 83° |
| 2026-04-21 17:16 | 33.94906 | -118.40187 | 103 ft | 19 kts | 83° |
| 2026-04-21 17:16 | 33.94921 | -118.40037 | 99 ft | 14 kts | 90° |
| 2026-04-21 17:17 | 33.94944 | -118.39938 | 101 ft | 12 kts | 50° |
| 2026-04-21 17:17 | 33.94949 | -118.39932 | 102 ft | 0 kts | 43° |
| 2026-04-21 17:18 | 33.95011 | -118.39922 | 103 ft | 16 kts | 350° |
| 2026-04-21 17:18 | 33.95035 | -118.39988 | 101 ft | 8 kts | 265° |
| 2026-04-21 17:19 | 33.95034 | -118.39998 | 103 ft | 0 kts | 263° |
| 2026-04-21 17:19 | 33.95028 | -118.40066 | 100 ft | 32 kts | 263° |
| 2026-04-21 17:19 | 33.94976 | -118.40586 | 106 ft | 92 kts | 263° |
| 2026-04-21 17:20 | 33.94876 | -118.41559 | 105 ft | 143 kts | 263° |
| 2026-04-21 17:20 | 33.94770 | -118.42586 | 154 ft | 172 kts | 261° |
| 2026-04-21 17:20 | 33.94704 | -118.43373 | 415 ft | 170 kts | 263° |
| 2026-04-21 17:20 | 33.94576 | -118.44767 | 1020 ft | 171 kts | 258° |
| 2026-04-21 17:21 | 33.94386 | -118.46251 | 1439 ft | 187 kts | 258° |
| 2026-04-21 17:21 | 33.94178 | -118.47879 | 1868 ft | 206 kts | 262° |
| 2026-04-21 17:21 | 33.94288 | -118.49681 | 2166 ft | 228 kts | 286° |
| 2026-04-21 17:21 | 33.94932 | -118.51492 | 2537 ft | 243 kts | 296° |
| 2026-04-21 17:22 | 33.95740 | -118.53339 | 2887 ft | 254 kts | 297° |
| 2026-04-21 17:22 | 33.96604 | -118.55242 | 3307 ft | 264 kts | 297° |
| 2026-04-21 17:22 | 33.97502 | -118.57213 | 3729 ft | 269 kts | 297° |
| 2026-04-21 17:22 | 33.98394 | -118.59175 | 4423 ft | 264 kts | 295° |
| 2026-04-21 17:23 | 33.99269 | -118.61103 | 5075 ft | 261 kts | 295° |
| 2026-04-21 17:23 | 34.00140 | -118.63025 | 5661 ft | 261 kts | 294° |
| 2026-04-21 17:23 | 34.01010 | -118.64947 | 6268 ft | 262 kts | 294° |
| 2026-04-21 17:23 | 34.01884 | -118.66890 | 6787 ft | 265 kts | 293° |
| 2026-04-21 17:24 | 34.02766 | -118.68836 | 7426 ft | 264 kts | 292° |
| 2026-04-21 17:24 | 34.03647 | -118.70787 | 7990 ft | 267 kts | 292° |
| 2026-04-21 17:24 | 34.04532 | -118.72745 | 8564 ft | 271 kts | 293° |
| 2026-04-21 17:24 | 34.05438 | -118.74747 | 9142 ft | 274 kts | 292° |
| 2026-04-21 17:25 | 34.06356 | -118.76774 | 9798 ft | 277 kts | 292° |
| 2026-04-21 17:25 | 34.07282 | -118.78829 | 10343 ft | 282 kts | 292° |
| 2026-04-21 17:25 | 34.08234 | -118.80957 | 10636 ft | 295 kts | 292° |
| 2026-04-21 17:25 | 34.09235 | -118.83193 | 10937 ft | 309 kts | 292° |
| 2026-04-21 17:26 | 34.10281 | -118.85523 | 11224 ft | 322 kts | 292° |
| 2026-04-21 17:26 | 34.11369 | -118.87939 | 11519 ft | 334 kts | 291° |
| 2026-04-21 17:26 | 34.12495 | -118.90451 | 11770 ft | 347 kts | 291° |
| 2026-04-21 17:26 | 34.13666 | -118.93042 | 12016 ft | 358 kts | 292° |
| 2026-04-21 17:27 | 34.14874 | -118.95728 | 12272 ft | 369 kts | 292° |
| 2026-04-21 17:27 | 34.16111 | -118.98495 | 12538 ft | 379 kts | 292° |
| 2026-04-21 17:27 | 34.17372 | -119.01305 | 13012 ft | 382 kts | 292° |
| 2026-04-21 17:27 | 34.18643 | -119.04140 | 13526 ft | 385 kts | 292° |
| 2026-04-21 17:28 | 34.19919 | -119.06993 | 14022 ft | 388 kts | 292° |
| 2026-04-21 17:28 | 34.21203 | -119.09863 | 14458 ft | 390 kts | 291° |
| 2026-04-21 17:28 | 34.22498 | -119.12760 | 14913 ft | 392 kts | 291° |
| 2026-04-21 17:28 | 34.23801 | -119.15680 | 15412 ft | 394 kts | 291° |
| 2026-04-21 17:29 | 34.25099 | -119.18591 | 15824 ft | 397 kts | 291° |
| 2026-04-21 17:29 | 34.26404 | -119.21517 | 16257 ft | 400 kts | 290° |
| 2026-04-21 17:29 | 34.27729 | -119.24496 | 16713 ft | 403 kts | 290° |
| 2026-04-21 17:29 | 34.29058 | -119.27485 | 17170 ft | 405 kts | 289° |
| 2026-04-21 17:30 | 34.30396 | -119.30495 | 17627 ft | 407 kts | 289° |
| 2026-04-21 17:30 | 34.31738 | -119.33523 | 18109 ft | 408 kts | 289° |
| 2026-04-21 17:30 | 34.33086 | -119.36555 | 18525 ft | 410 kts | 289° |
| 2026-04-21 17:30 | 34.34439 | -119.39606 | 18912 ft | 413 kts | 289° |
| 2026-04-21 17:31 | 34.35792 | -119.42671 | 19280 ft | 415 kts | 289° |
| 2026-04-21 17:31 | 34.37161 | -119.45762 | 19720 ft | 417 kts | 289° |
| 2026-04-21 17:31 | 34.38533 | -119.48866 | 20138 ft | 419 kts | 289° |
| 2026-04-21 17:31 | 34.39716 | -119.51543 | 20511 ft | 420 kts | 288° |
| 2026-04-21 17:32 | 34.40652 | -119.53661 | 20733 ft | 422 kts | 288° |
| 2026-04-21 17:32 | 34.42484 | -119.57816 | 21373 ft | 423 kts | 288° |
| 2026-04-21 17:32 | 34.43866 | -119.60950 | 21819 ft | 424 kts | 288° |
| 2026-04-21 17:32 | 34.45256 | -119.64108 | 22252 ft | 425 kts | 288° |
| 2026-04-21 17:33 | 34.46651 | -119.67280 | 22681 ft | 427 kts | 288° |
| 2026-04-21 17:33 | 34.48036 | -119.70435 | 23127 ft | 429 kts | 288° |
| 2026-04-21 17:33 | 34.49441 | -119.73630 | 23577 ft | 431 kts | 288° |
| 2026-04-21 17:33 | 34.51007 | -119.76775 | 23890 ft | 443 kts | 295° |
| 2026-04-21 17:34 | 34.52956 | -119.79725 | 24262 ft | 450 kts | 300° |
| 2026-04-21 17:34 | 34.55056 | -119.82558 | 24611 ft | 453 kts | 302° |
| 2026-04-21 17:34 | 34.57231 | -119.85355 | 24951 ft | 458 kts | 303° |
| 2026-04-21 17:34 | 34.59451 | -119.88146 | 25333 ft | 459 kts | 303° |
| 2026-04-21 17:35 | 34.61676 | -119.90935 | 25695 ft | 460 kts | 303° |
| 2026-04-21 17:35 | 34.63898 | -119.93737 | 26037 ft | 462 kts | 303° |
| 2026-04-21 17:35 | 34.66121 | -119.96565 | 26366 ft | 463 kts | 303° |
| 2026-04-21 17:35 | 34.68350 | -119.99417 | 26705 ft | 465 kts | 303° |
| 2026-04-21 17:36 | 34.70574 | -120.02275 | 27103 ft | 466 kts | 302° |
| 2026-04-21 17:36 | 34.72803 | -120.05149 | 27383 ft | 469 kts | 302° |
| 2026-04-21 17:36 | 34.75045 | -120.08048 | 27658 ft | 472 kts | 302° |
| 2026-04-21 17:36 | 34.77294 | -120.10959 | 27975 ft | 473 kts | 302° |
| 2026-04-21 17:37 | 34.79550 | -120.13879 | 28377 ft | 472 kts | 302° |
| 2026-04-21 17:37 | 34.81804 | -120.16792 | 28712 ft | 473 kts | 302° |
| 2026-04-21 17:37 | 34.83292 | -120.18718 | 28862 ft | 474 kts | 302° |
| 2026-04-21 17:37 | 34.86290 | -120.22603 | 29283 ft | 474 kts | 302° |
| 2026-04-21 17:38 | 34.88547 | -120.25528 | 29712 ft | 474 kts | 302° |
| 2026-04-21 17:38 | 34.90819 | -120.28479 | 29948 ft | 476 kts | 302° |
| 2026-04-21 17:38 | 34.93073 | -120.31403 | 30273 ft | 474 kts | 302° |
| 2026-04-21 17:38 | 34.95333 | -120.34333 | 30599 ft | 473 kts | 302° |
| 2026-04-21 17:39 | 34.97589 | -120.37266 | 30938 ft | 471 kts | 302° |
| 2026-04-21 17:39 | 34.99829 | -120.40184 | 31279 ft | 469 kts | 302° |
| 2026-04-21 17:39 | 35.02045 | -120.43075 | 31664 ft | 466 kts | 302° |
| 2026-04-21 17:39 | 35.04256 | -120.45959 | 32035 ft | 464 kts | 302° |
| 2026-04-21 17:40 | 35.06467 | -120.48850 | 32177 ft | 466 kts | 302° |
| 2026-04-21 17:40 | 35.08677 | -120.51747 | 32388 ft | 466 kts | 302° |